sensor_id;sensor_type;location;lat;lon;timestamp;P1;durP1;ratioP1;P2;durP2;ratioP2
13185;SDS011;6658;53.080;7.428;2024-02-26T00:02:25;12.27;;;10.97;;
13185;SDS011;6658;53.080;7.428;2024-02-26T00:04:50;13.37;;;11.87;;
13185;SDS011;6658;53.080;7.428;2024-02-26T00:07:16;12.73;;;11.13;;
13185;SDS011;6658;53.080;7.428;2024-02-26T00:09:42;11.83;;;10.63;;
13185;SDS011;6658;53.080;7.428;2024-02-26T00:12:07;13.10;;;11.80;;
13185;SDS011;6658;53.080;7.428;2024-02-26T00:14:33;12.13;;;10.70;;
13185;SDS011;6658;53.080;7.428;2024-02-26T00:16:59;13.80;;;12.33;;
13185;SDS011;6658;53.080;7.428;2024-02-26T00:19:25;12.60;;;11.17;;
13185;SDS011;6658;53.080;7.428;2024-02-26T00:21:51;14.27;;;10.90;;
13185;SDS011;6658;53.080;7.428;2024-02-26T00:24:18;12.47;;;11.10;;
13185;SDS011;6658;53.080;7.428;2024-02-26T00:26:44;13.80;;;11.90;;
13185;SDS011;6658;53.080;7.428;2024-02-26T00:29:10;13.17;;;11.83;;
13185;SDS011;6658;53.080;7.428;2024-02-26T00:31:36;12.83;;;11.50;;
13185;SDS011;6658;53.080;7.428;2024-02-26T00:34:03;12.57;;;11.27;;
13185;SDS011;6658;53.080;7.428;2024-02-26T00:36:28;13.10;;;11.43;;
13185;SDS011;6658;53.080;7.428;2024-02-26T00:38:55;14.17;;;12.10;;
13185;SDS011;6658;53.080;7.428;2024-02-26T00:41:21;13.73;;;12.23;;
13185;SDS011;6658;53.080;7.428;2024-02-26T00:43:46;13.27;;;11.47;;
13185;SDS011;6658;53.080;7.428;2024-02-26T00:46:12;13.43;;;11.47;;
13185;SDS011;6658;53.080;7.428;2024-02-26T00:48:38;15.10;;;12.57;;
13185;SDS011;6658;53.080;7.428;2024-02-26T00:51:04;12.50;;;10.57;;
13185;SDS011;6658;53.080;7.428;2024-02-26T00:53:30;16.70;;;12.67;;
13185;SDS011;6658;53.080;7.428;2024-02-26T00:55:56;15.40;;;13.00;;
13185;SDS011;6658;53.080;7.428;2024-02-26T00:58:24;16.03;;;13.03;;
13185;SDS011;6658;53.080;7.428;2024-02-26T01:00:50;15.43;;;13.17;;
13185;SDS011;6658;53.080;7.428;2024-02-26T01:03:17;17.73;;;13.73;;
13185;SDS011;6658;53.080;7.428;2024-02-26T01:05:43;18.50;;;13.93;;
13185;SDS011;6658;53.080;7.428;2024-02-26T01:08:08;18.07;;;13.57;;
13185;SDS011;6658;53.080;7.428;2024-02-26T01:10:34;18.30;;;13.40;;
13185;SDS011;6658;53.080;7.428;2024-02-26T01:13:00;18.40;;;14.23;;
13185;SDS011;6658;53.080;7.428;2024-02-26T01:15:26;20.93;;;15.23;;
13185;SDS011;6658;53.080;7.428;2024-02-26T01:17:52;19.77;;;14.73;;
13185;SDS011;6658;53.080;7.428;2024-02-26T01:20:18;22.17;;;15.20;;
13185;SDS011;6658;53.080;7.428;2024-02-26T01:22:44;19.07;;;12.27;;
13185;SDS011;6658;53.080;7.428;2024-02-26T01:25:10;21.83;;;15.97;;
13185;SDS011;6658;53.080;7.428;2024-02-26T01:27:36;21.93;;;15.23;;
13185;SDS011;6658;53.080;7.428;2024-02-26T01:30:03;23.13;;;14.83;;
13185;SDS011;6658;53.080;7.428;2024-02-26T01:32:29;23.30;;;15.47;;
13185;SDS011;6658;53.080;7.428;2024-02-26T01:34:55;19.53;;;12.67;;
13185;SDS011;6658;53.080;7.428;2024-02-26T01:37:21;21.77;;;15.00;;
13185;SDS011;6658;53.080;7.428;2024-02-26T01:39:46;20.77;;;15.07;;
13185;SDS011;6658;53.080;7.428;2024-02-26T01:42:12;25.03;;;16.83;;
13185;SDS011;6658;53.080;7.428;2024-02-26T01:44:38;14.37;;;9.63;;
13185;SDS011;6658;53.080;7.428;2024-02-26T01:47:04;26.97;;;16.73;;
13185;SDS011;6658;53.080;7.428;2024-02-26T01:49:32;25.07;;;17.97;;
13185;SDS011;6658;53.080;7.428;2024-02-26T01:51:57;25.20;;;17.40;;
13185;SDS011;6658;53.080;7.428;2024-02-26T01:54:24;26.47;;;18.30;;
13185;SDS011;6658;53.080;7.428;2024-02-26T01:56:50;25.07;;;16.73;;
13185;SDS011;6658;53.080;7.428;2024-02-26T01:59:16;26.93;;;17.77;;
13185;SDS011;6658;53.080;7.428;2024-02-26T02:01:44;27.27;;;18.27;;
13185;SDS011;6658;53.080;7.428;2024-02-26T02:04:13;25.47;;;17.50;;
13185;SDS011;6658;53.080;7.428;2024-02-26T02:06:41;27.13;;;18.70;;
13185;SDS011;6658;53.080;7.428;2024-02-26T02:09:08;28.37;;;18.97;;
13185;SDS011;6658;53.080;7.428;2024-02-26T02:11:34;29.50;;;19.10;;
13185;SDS011;6658;53.080;7.428;2024-02-26T02:14:00;29.00;;;18.17;;
13185;SDS011;6658;53.080;7.428;2024-02-26T02:16:25;31.53;;;19.70;;
13185;SDS011;6658;53.080;7.428;2024-02-26T02:18:51;32.90;;;21.53;;
13185;SDS011;6658;53.080;7.428;2024-02-26T02:21:17;30.70;;;18.57;;
13185;SDS011;6658;53.080;7.428;2024-02-26T02:23:42;31.67;;;20.17;;
13185;SDS011;6658;53.080;7.428;2024-02-26T02:26:11;34.47;;;19.90;;
13185;SDS011;6658;53.080;7.428;2024-02-26T02:28:40;31.63;;;18.93;;
13185;SDS011;6658;53.080;7.428;2024-02-26T02:31:06;29.00;;;17.57;;
13185;SDS011;6658;53.080;7.428;2024-02-26T02:33:32;30.70;;;18.30;;
13185;SDS011;6658;53.080;7.428;2024-02-26T02:35:59;26.77;;;17.40;;
13185;SDS011;6658;53.080;7.428;2024-02-26T02:38:25;31.27;;;18.47;;
13185;SDS011;6658;53.080;7.428;2024-02-26T02:40:52;32.73;;;18.97;;
13185;SDS011;6658;53.080;7.428;2024-02-26T02:43:18;33.00;;;19.27;;
13185;SDS011;6658;53.080;7.428;2024-02-26T02:45:44;34.13;;;20.30;;
13185;SDS011;6658;53.080;7.428;2024-02-26T02:48:10;26.70;;;16.67;;
13185;SDS011;6658;53.080;7.428;2024-02-26T02:50:36;29.77;;;18.07;;
13185;SDS011;6658;53.080;7.428;2024-02-26T02:53:02;34.07;;;19.53;;
13185;SDS011;6658;53.080;7.428;2024-02-26T02:55:28;33.20;;;19.50;;
13185;SDS011;6658;53.080;7.428;2024-02-26T02:57:54;31.60;;;18.63;;
13185;SDS011;6658;53.080;7.428;2024-02-26T03:00:19;30.47;;;18.10;;
13185;SDS011;6658;53.080;7.428;2024-02-26T03:02:48;28.03;;;19.23;;
13185;SDS011;6658;53.080;7.428;2024-02-26T03:05:16;24.47;;;16.37;;
13185;SDS011;6658;53.080;7.428;2024-02-26T03:07:42;21.50;;;14.70;;
13185;SDS011;6658;53.080;7.428;2024-02-26T03:10:08;26.60;;;18.47;;
13185;SDS011;6658;53.080;7.428;2024-02-26T03:12:34;21.97;;;14.70;;
13185;SDS011;6658;53.080;7.428;2024-02-26T03:15:00;25.30;;;17.33;;
13185;SDS011;6658;53.080;7.428;2024-02-26T03:17:29;20.83;;;14.30;;
13185;SDS011;6658;53.080;7.428;2024-02-26T03:19:55;22.73;;;16.47;;
13185;SDS011;6658;53.080;7.428;2024-02-26T03:22:21;19.87;;;13.10;;
13185;SDS011;6658;53.080;7.428;2024-02-26T03:24:47;23.53;;;16.67;;
13185;SDS011;6658;53.080;7.428;2024-02-26T03:27:13;26.53;;;16.13;;
13185;SDS011;6658;53.080;7.428;2024-02-26T03:29:39;23.60;;;16.13;;
13185;SDS011;6658;53.080;7.428;2024-02-26T03:32:05;19.90;;;15.00;;
13185;SDS011;6658;53.080;7.428;2024-02-26T03:34:32;21.73;;;16.10;;
13185;SDS011;6658;53.080;7.428;2024-02-26T03:37:04;20.03;;;14.80;;
13185;SDS011;6658;53.080;7.428;2024-02-26T03:39:30;22.30;;;16.17;;
13185;SDS011;6658;53.080;7.428;2024-02-26T03:41:56;15.73;;;12.27;;
13185;SDS011;6658;53.080;7.428;2024-02-26T03:44:22;20.47;;;14.77;;
13185;SDS011;6658;53.080;7.428;2024-02-26T03:46:47;20.63;;;14.33;;
13185;SDS011;6658;53.080;7.428;2024-02-26T03:49:13;18.17;;;13.37;;
13185;SDS011;6658;53.080;7.428;2024-02-26T03:51:39;20.90;;;14.80;;
13185;SDS011;6658;53.080;7.428;2024-02-26T03:54:04;20.77;;;14.43;;
13185;SDS011;6658;53.080;7.428;2024-02-26T03:56:30;17.87;;;12.67;;
13185;SDS011;6658;53.080;7.428;2024-02-26T03:58:56;7.30;;;6.57;;
13185;SDS011;6658;53.080;7.428;2024-02-26T04:01:21;17.57;;;13.47;;
13185;SDS011;6658;53.080;7.428;2024-02-26T04:03:47;14.43;;;11.07;;
13185;SDS011;6658;53.080;7.428;2024-02-26T04:06:13;16.77;;;11.80;;
13185;SDS011;6658;53.080;7.428;2024-02-26T04:08:39;16.50;;;12.93;;
13185;SDS011;6658;53.080;7.428;2024-02-26T04:11:06;16.13;;;12.23;;
13185;SDS011;6658;53.080;7.428;2024-02-26T04:13:35;14.83;;;12.33;;
13185;SDS011;6658;53.080;7.428;2024-02-26T04:16:05;13.13;;;9.70;;
13185;SDS011;6658;53.080;7.428;2024-02-26T04:18:31;14.57;;;11.33;;
13185;SDS011;6658;53.080;7.428;2024-02-26T04:20:57;10.23;;;8.83;;
13185;SDS011;6658;53.080;7.428;2024-02-26T04:23:23;11.67;;;9.57;;
13185;SDS011;6658;53.080;7.428;2024-02-26T04:25:49;11.27;;;9.53;;
13185;SDS011;6658;53.080;7.428;2024-02-26T04:28:15;11.57;;;9.73;;
13185;SDS011;6658;53.080;7.428;2024-02-26T04:30:41;9.53;;;8.07;;
13185;SDS011;6658;53.080;7.428;2024-02-26T04:33:07;8.73;;;7.47;;
13185;SDS011;6658;53.080;7.428;2024-02-26T04:35:32;10.37;;;8.23;;
13185;SDS011;6658;53.080;7.428;2024-02-26T04:38:00;9.53;;;8.43;;
13185;SDS011;6658;53.080;7.428;2024-02-26T04:40:26;9.37;;;7.93;;
13185;SDS011;6658;53.080;7.428;2024-02-26T04:42:51;8.73;;;7.83;;
13185;SDS011;6658;53.080;7.428;2024-02-26T04:45:17;8.27;;;7.47;;
13185;SDS011;6658;53.080;7.428;2024-02-26T04:47:43;8.27;;;7.40;;
13185;SDS011;6658;53.080;7.428;2024-02-26T04:50:09;8.97;;;7.23;;
13185;SDS011;6658;53.080;7.428;2024-02-26T04:52:34;10.17;;;7.87;;
13185;SDS011;6658;53.080;7.428;2024-02-26T04:55:01;8.27;;;7.50;;
13185;SDS011;6658;53.080;7.428;2024-02-26T04:57:27;8.37;;;7.57;;
13185;SDS011;6658;53.080;7.428;2024-02-26T04:59:53;8.20;;;7.40;;
13185;SDS011;6658;53.080;7.428;2024-02-26T05:02:19;9.17;;;8.10;;
13185;SDS011;6658;53.080;7.428;2024-02-26T05:04:44;9.23;;;7.93;;
13185;SDS011;6658;53.080;7.428;2024-02-26T05:07:10;9.63;;;8.47;;
13185;SDS011;6658;53.080;7.428;2024-02-26T05:09:37;8.37;;;7.53;;
13185;SDS011;6658;53.080;7.428;2024-02-26T05:12:03;8.70;;;7.53;;
13185;SDS011;6658;53.080;7.428;2024-02-26T05:14:29;8.40;;;7.60;;
13185;SDS011;6658;53.080;7.428;2024-02-26T05:16:55;8.13;;;7.13;;
13185;SDS011;6658;53.080;7.428;2024-02-26T05:19:21;7.90;;;7.10;;
13185;SDS011;6658;53.080;7.428;2024-02-26T05:21:47;9.03;;;8.13;;
13185;SDS011;6658;53.080;7.428;2024-02-26T05:24:14;8.03;;;7.23;;
13185;SDS011;6658;53.080;7.428;2024-02-26T05:26:42;5.33;;;4.60;;
13185;SDS011;6658;53.080;7.428;2024-02-26T05:29:08;7.63;;;6.93;;
13185;SDS011;6658;53.080;7.428;2024-02-26T05:31:34;7.97;;;6.57;;
13185;SDS011;6658;53.080;7.428;2024-02-26T05:33:59;7.13;;;6.43;;
13185;SDS011;6658;53.080;7.428;2024-02-26T05:36:25;7.33;;;6.63;;
13185;SDS011;6658;53.080;7.428;2024-02-26T05:38:53;6.10;;;5.50;;
13185;SDS011;6658;53.080;7.428;2024-02-26T05:41:19;7.70;;;6.87;;
13185;SDS011;6658;53.080;7.428;2024-02-26T05:43:51;5.70;;;4.77;;
13185;SDS011;6658;53.080;7.428;2024-02-26T05:46:17;7.70;;;6.90;;
13185;SDS011;6658;53.080;7.428;2024-02-26T05:48:44;6.07;;;5.47;;
13185;SDS011;6658;53.080;7.428;2024-02-26T05:51:11;5.87;;;4.90;;
13185;SDS011;6658;53.080;7.428;2024-02-26T05:53:37;7.30;;;6.70;;
13185;SDS011;6658;53.080;7.428;2024-02-26T05:56:03;5.73;;;5.23;;
13185;SDS011;6658;53.080;7.428;2024-02-26T05:58:29;6.10;;;5.53;;
13185;SDS011;6658;53.080;7.428;2024-02-26T06:00:54;6.37;;;5.77;;
13185;SDS011;6658;53.080;7.428;2024-02-26T06:03:20;7.93;;;5.57;;
13185;SDS011;6658;53.080;7.428;2024-02-26T06:05:46;6.17;;;5.67;;
13185;SDS011;6658;53.080;7.428;2024-02-26T06:08:11;6.60;;;6.00;;
13185;SDS011;6658;53.080;7.428;2024-02-26T06:10:37;7.03;;;5.77;;
13185;SDS011;6658;53.080;7.428;2024-02-26T06:13:04;6.00;;;5.50;;
13185;SDS011;6658;53.080;7.428;2024-02-26T06:15:30;5.70;;;5.20;;
13185;SDS011;6658;53.080;7.428;2024-02-26T06:17:55;4.73;;;4.23;;
13185;SDS011;6658;53.080;7.428;2024-02-26T06:20:21;6.00;;;4.60;;
13185;SDS011;6658;53.080;7.428;2024-02-26T06:22:47;4.60;;;3.93;;
13185;SDS011;6658;53.080;7.428;2024-02-26T06:25:12;5.50;;;5.00;;
13185;SDS011;6658;53.080;7.428;2024-02-26T06:27:38;5.57;;;5.07;;
13185;SDS011;6658;53.080;7.428;2024-02-26T06:30:04;5.67;;;5.17;;
13185;SDS011;6658;53.080;7.428;2024-02-26T06:32:30;4.87;;;4.47;;
13185;SDS011;6658;53.080;7.428;2024-02-26T06:34:56;5.83;;;5.23;;
13185;SDS011;6658;53.080;7.428;2024-02-26T06:37:22;5.23;;;4.73;;
13185;SDS011;6658;53.080;7.428;2024-02-26T06:39:47;6.60;;;5.10;;
13185;SDS011;6658;53.080;7.428;2024-02-26T06:42:13;6.00;;;5.50;;
13185;SDS011;6658;53.080;7.428;2024-02-26T06:44:39;5.97;;;5.47;;
13185;SDS011;6658;53.080;7.428;2024-02-26T06:47:05;6.23;;;5.30;;
13185;SDS011;6658;53.080;7.428;2024-02-26T06:49:31;5.63;;;5.03;;
13185;SDS011;6658;53.080;7.428;2024-02-26T06:51:56;5.77;;;5.27;;
13185;SDS011;6658;53.080;7.428;2024-02-26T06:54:22;5.70;;;5.07;;
13185;SDS011;6658;53.080;7.428;2024-02-26T06:56:48;4.73;;;4.33;;
13185;SDS011;6658;53.080;7.428;2024-02-26T06:59:13;6.73;;;4.80;;
13185;SDS011;6658;53.080;7.428;2024-02-26T07:01:42;5.33;;;4.83;;
13185;SDS011;6658;53.080;7.428;2024-02-26T07:04:08;5.90;;;5.27;;
13185;SDS011;6658;53.080;7.428;2024-02-26T07:06:36;4.80;;;4.40;;
13185;SDS011;6658;53.080;7.428;2024-02-26T07:09:01;5.40;;;4.60;;
13185;SDS011;6658;53.080;7.428;2024-02-26T07:11:27;4.47;;;4.07;;
13185;SDS011;6658;53.080;7.428;2024-02-26T07:13:53;5.17;;;4.70;;
13185;SDS011;6658;53.080;7.428;2024-02-26T07:16:19;5.47;;;4.97;;
13185;SDS011;6658;53.080;7.428;2024-02-26T07:18:44;4.73;;;4.33;;
13185;SDS011;6658;53.080;7.428;2024-02-26T07:21:11;4.93;;;4.43;;
13185;SDS011;6658;53.080;7.428;2024-02-26T07:23:37;5.10;;;4.67;;
13185;SDS011;6658;53.080;7.428;2024-02-26T07:26:03;5.67;;;5.17;;
13185;SDS011;6658;53.080;7.428;2024-02-26T07:28:29;4.07;;;3.77;;
13185;SDS011;6658;53.080;7.428;2024-02-26T07:30:54;4.40;;;3.97;;
13185;SDS011;6658;53.080;7.428;2024-02-26T07:33:20;5.33;;;4.83;;
13185;SDS011;6658;53.080;7.428;2024-02-26T07:35:46;4.87;;;4.47;;
13185;SDS011;6658;53.080;7.428;2024-02-26T07:38:12;4.67;;;4.27;;
13185;SDS011;6658;53.080;7.428;2024-02-26T07:40:38;5.20;;;4.80;;
13185;SDS011;6658;53.080;7.428;2024-02-26T07:43:04;4.77;;;4.40;;
13185;SDS011;6658;53.080;7.428;2024-02-26T07:45:30;4.80;;;4.30;;
13185;SDS011;6658;53.080;7.428;2024-02-26T07:47:55;4.87;;;4.47;;
13185;SDS011;6658;53.080;7.428;2024-02-26T07:50:21;4.10;;;3.80;;
13185;SDS011;6658;53.080;7.428;2024-02-26T07:52:47;3.57;;;3.27;;
13185;SDS011;6658;53.080;7.428;2024-02-26T07:55:12;4.50;;;4.20;;
13185;SDS011;6658;53.080;7.428;2024-02-26T07:57:42;4.00;;;3.70;;
13185;SDS011;6658;53.080;7.428;2024-02-26T08:00:09;3.80;;;3.50;;
13185;SDS011;6658;53.080;7.428;2024-02-26T08:02:38;4.20;;;3.80;;
13185;SDS011;6658;53.080;7.428;2024-02-26T08:05:03;2.40;;;2.27;;
13185;SDS011;6658;53.080;7.428;2024-02-26T08:07:30;4.10;;;3.67;;
13185;SDS011;6658;53.080;7.428;2024-02-26T08:09:55;3.90;;;3.60;;
13185;SDS011;6658;53.080;7.428;2024-02-26T08:12:21;1.97;;;1.87;;
13185;SDS011;6658;53.080;7.428;2024-02-26T08:14:46;4.30;;;3.97;;
13185;SDS011;6658;53.080;7.428;2024-02-26T08:17:12;4.03;;;3.73;;
13185;SDS011;6658;53.080;7.428;2024-02-26T08:19:38;5.87;;;3.77;;
13185;SDS011;6658;53.080;7.428;2024-02-26T08:22:04;3.70;;;3.40;;
13185;SDS011;6658;53.080;7.428;2024-02-26T08:24:29;3.83;;;3.53;;
13185;SDS011;6658;53.080;7.428;2024-02-26T08:26:55;2.47;;;2.27;;
13185;SDS011;6658;53.080;7.428;2024-02-26T08:29:21;3.43;;;3.23;;
13185;SDS011;6658;53.080;7.428;2024-02-26T08:31:47;3.67;;;3.43;;
13185;SDS011;6658;53.080;7.428;2024-02-26T08:34:13;2.97;;;2.67;;
13185;SDS011;6658;53.080;7.428;2024-02-26T08:36:38;3.70;;;3.40;;
13185;SDS011;6658;53.080;7.428;2024-02-26T08:39:04;3.87;;;3.57;;
13185;SDS011;6658;53.080;7.428;2024-02-26T08:41:30;4.23;;;3.80;;
13185;SDS011;6658;53.080;7.428;2024-02-26T08:43:56;4.10;;;3.80;;
13185;SDS011;6658;53.080;7.428;2024-02-26T08:46:23;3.30;;;3.00;;
13185;SDS011;6658;53.080;7.428;2024-02-26T08:48:48;4.17;;;3.87;;
13185;SDS011;6658;53.080;7.428;2024-02-26T08:51:14;3.50;;;3.30;;
13185;SDS011;6658;53.080;7.428;2024-02-26T08:53:40;5.20;;;3.63;;
13185;SDS011;6658;53.080;7.428;2024-02-26T08:56:06;3.23;;;3.03;;
13185;SDS011;6658;53.080;7.428;2024-02-26T08:58:31;3.30;;;3.10;;
13185;SDS011;6658;53.080;7.428;2024-02-26T09:00:57;3.20;;;3.00;;
13185;SDS011;6658;53.080;7.428;2024-02-26T09:03:23;3.53;;;3.23;;
13185;SDS011;6658;53.080;7.428;2024-02-26T09:05:49;3.60;;;2.93;;
13185;SDS011;6658;53.080;7.428;2024-02-26T09:08:14;3.73;;;3.47;;
13185;SDS011;6658;53.080;7.428;2024-02-26T09:10:40;4.87;;;3.20;;
13185;SDS011;6658;53.080;7.428;2024-02-26T09:13:07;2.87;;;2.67;;
13185;SDS011;6658;53.080;7.428;2024-02-26T09:15:32;3.87;;;3.57;;
13185;SDS011;6658;53.080;7.428;2024-02-26T09:17:58;3.00;;;2.80;;
13185;SDS011;6658;53.080;7.428;2024-02-26T09:20:24;3.53;;;3.30;;
13185;SDS011;6658;53.080;7.428;2024-02-26T09:22:50;4.00;;;3.70;;
13185;SDS011;6658;53.080;7.428;2024-02-26T09:25:16;2.87;;;2.67;;
13185;SDS011;6658;53.080;7.428;2024-02-26T09:27:43;3.70;;;3.40;;
13185;SDS011;6658;53.080;7.428;2024-02-26T09:30:09;3.30;;;3.10;;
13185;SDS011;6658;53.080;7.428;2024-02-26T09:32:36;3.03;;;2.83;;
13185;SDS011;6658;53.080;7.428;2024-02-26T09:35:02;3.80;;;3.50;;
13185;SDS011;6658;53.080;7.428;2024-02-26T09:37:28;2.90;;;2.70;;
13185;SDS011;6658;53.080;7.428;2024-02-26T09:39:54;3.20;;;2.90;;
13185;SDS011;6658;53.080;7.428;2024-02-26T09:42:19;3.50;;;3.20;;
13185;SDS011;6658;53.080;7.428;2024-02-26T09:44:45;3.47;;;3.23;;
13185;SDS011;6658;53.080;7.428;2024-02-26T09:47:14;3.37;;;3.10;;
13185;SDS011;6658;53.080;7.428;2024-02-26T09:49:42;3.07;;;2.87;;
13185;SDS011;6658;53.080;7.428;2024-02-26T09:52:08;3.43;;;3.23;;
13185;SDS011;6658;53.080;7.428;2024-02-26T09:54:34;3.40;;;3.20;;
13185;SDS011;6658;53.080;7.428;2024-02-26T09:57:02;3.00;;;2.73;;
13185;SDS011;6658;53.080;7.428;2024-02-26T09:59:40;4.13;;;3.80;;
13185;SDS011;6658;53.080;7.428;2024-02-26T10:02:14;3.30;;;3.10;;
13185;SDS011;6658;53.080;7.428;2024-02-26T10:04:40;2.73;;;2.53;;
13185;SDS011;6658;53.080;7.428;2024-02-26T10:07:10;3.63;;;3.33;;
13185;SDS011;6658;53.080;7.428;2024-02-26T10:09:37;3.30;;;3.10;;
13185;SDS011;6658;53.080;7.428;2024-02-26T10:12:04;3.37;;;3.07;;
13185;SDS011;6658;53.080;7.428;2024-02-26T10:14:32;2.77;;;2.50;;
13185;SDS011;6658;53.080;7.428;2024-02-26T10:16:58;3.03;;;2.73;;
13185;SDS011;6658;53.080;7.428;2024-02-26T10:19:30;3.30;;;3.10;;
13185;SDS011;6658;53.080;7.428;2024-02-26T10:21:59;3.60;;;3.30;;
13185;SDS011;6658;53.080;7.428;2024-02-26T10:24:29;3.57;;;3.00;;
13185;SDS011;6658;53.080;7.428;2024-02-26T10:26:55;3.33;;;3.03;;
13185;SDS011;6658;53.080;7.428;2024-02-26T10:29:23;4.30;;;3.57;;
13185;SDS011;6658;53.080;7.428;2024-02-26T10:31:50;3.30;;;3.10;;
13185;SDS011;6658;53.080;7.428;2024-02-26T10:34:17;3.23;;;3.03;;
13185;SDS011;6658;53.080;7.428;2024-02-26T10:36:43;3.07;;;2.87;;
13185;SDS011;6658;53.080;7.428;2024-02-26T10:39:09;2.47;;;2.27;;
13185;SDS011;6658;53.080;7.428;2024-02-26T10:41:42;3.50;;;3.30;;
13185;SDS011;6658;53.080;7.428;2024-02-26T10:44:09;2.87;;;2.67;;
13185;SDS011;6658;53.080;7.428;2024-02-26T10:46:44;2.90;;;2.70;;
13185;SDS011;6658;53.080;7.428;2024-02-26T10:49:14;4.67;;;2.70;;
13185;SDS011;6658;53.080;7.428;2024-02-26T10:51:44;3.27;;;2.87;;
13185;SDS011;6658;53.080;7.428;2024-02-26T10:54:12;3.40;;;3.10;;
13185;SDS011;6658;53.080;7.428;2024-02-26T10:56:41;3.57;;;3.27;;
13185;SDS011;6658;53.080;7.428;2024-02-26T10:59:09;3.80;;;3.50;;
13185;SDS011;6658;53.080;7.428;2024-02-26T11:01:35;3.70;;;3.40;;
13185;SDS011;6658;53.080;7.428;2024-02-26T11:04:06;3.30;;;3.00;;
13185;SDS011;6658;53.080;7.428;2024-02-26T11:06:33;3.70;;;3.40;;
13185;SDS011;6658;53.080;7.428;2024-02-26T11:09:01;3.47;;;3.27;;
13185;SDS011;6658;53.080;7.428;2024-02-26T11:11:29;3.70;;;3.40;;
13185;SDS011;6658;53.080;7.428;2024-02-26T11:13:57;4.00;;;3.70;;
13185;SDS011;6658;53.080;7.428;2024-02-26T11:16:24;3.80;;;3.50;;
13185;SDS011;6658;53.080;7.428;2024-02-26T11:18:52;4.00;;;3.70;;
13185;SDS011;6658;53.080;7.428;2024-02-26T11:21:20;4.17;;;3.77;;
13185;SDS011;6658;53.080;7.428;2024-02-26T11:24:03;3.47;;;3.17;;
13185;SDS011;6658;53.080;7.428;2024-02-26T11:26:46;2.73;;;2.53;;
13185;SDS011;6658;53.080;7.428;2024-02-26T11:29:21;4.40;;;4.10;;
13185;SDS011;6658;53.080;7.428;2024-02-26T11:31:48;4.13;;;3.83;;
13185;SDS011;6658;53.080;7.428;2024-02-26T11:34:14;3.53;;;3.23;;
13185;SDS011;6658;53.080;7.428;2024-02-26T11:36:40;3.70;;;3.40;;
13185;SDS011;6658;53.080;7.428;2024-02-26T11:39:07;3.77;;;3.47;;
13185;SDS011;6658;53.080;7.428;2024-02-26T11:41:33;3.97;;;3.50;;
13185;SDS011;6658;53.080;7.428;2024-02-26T11:44:00;4.17;;;3.80;;
13185;SDS011;6658;53.080;7.428;2024-02-26T11:46:30;4.00;;;3.70;;
13185;SDS011;6658;53.080;7.428;2024-02-26T11:49:02;2.97;;;2.73;;
13185;SDS011;6658;53.080;7.428;2024-02-26T11:51:32;3.77;;;3.47;;
13185;SDS011;6658;53.080;7.428;2024-02-26T11:54:00;4.13;;;3.83;;
13185;SDS011;6658;53.080;7.428;2024-02-26T11:56:25;3.23;;;3.00;;
13185;SDS011;6658;53.080;7.428;2024-02-26T12:02:02;3.57;;;3.30;;
13185;SDS011;6658;53.080;7.428;2024-02-26T12:04:29;3.03;;;2.83;;
13185;SDS011;6658;53.080;7.428;2024-02-26T12:06:56;3.30;;;3.00;;
13185;SDS011;6658;53.080;7.428;2024-02-26T12:12:07;3.47;;;3.17;;
13185;SDS011;6658;53.080;7.428;2024-02-26T12:14:36;4.30;;;4.00;;
13185;SDS011;6658;53.080;7.428;2024-02-26T12:17:19;3.90;;;3.50;;
13185;SDS011;6658;53.080;7.428;2024-02-26T12:19:45;4.10;;;3.73;;
13185;SDS011;6658;53.080;7.428;2024-02-26T12:22:14;4.03;;;3.73;;
13185;SDS011;6658;53.080;7.428;2024-02-26T12:24:40;3.77;;;3.47;;
13185;SDS011;6658;53.080;7.428;2024-02-26T12:27:07;3.93;;;3.57;;
13185;SDS011;6658;53.080;7.428;2024-02-26T12:29:32;3.73;;;3.47;;
13185;SDS011;6658;53.080;7.428;2024-02-26T12:31:58;4.00;;;3.60;;
13185;SDS011;6658;53.080;7.428;2024-02-26T12:34:24;3.33;;;3.03;;
13185;SDS011;6658;53.080;7.428;2024-02-26T12:36:51;4.03;;;3.73;;
13185;SDS011;6658;53.080;7.428;2024-02-26T12:39:18;3.87;;;3.57;;
13185;SDS011;6658;53.080;7.428;2024-02-26T12:41:45;3.07;;;2.87;;
13185;SDS011;6658;53.080;7.428;2024-02-26T12:44:15;3.73;;;3.43;;
13185;SDS011;6658;53.080;7.428;2024-02-26T12:46:49;4.07;;;3.77;;
13185;SDS011;6658;53.080;7.428;2024-02-26T12:49:15;4.67;;;4.27;;
13185;SDS011;6658;53.080;7.428;2024-02-26T12:51:44;4.57;;;4.17;;
13185;SDS011;6658;53.080;7.428;2024-02-26T12:54:10;3.27;;;3.07;;
13185;SDS011;6658;53.080;7.428;2024-02-26T12:56:37;3.73;;;3.43;;
13185;SDS011;6658;53.080;7.428;2024-02-26T12:59:03;4.33;;;3.93;;
13185;SDS011;6658;53.080;7.428;2024-02-26T13:01:29;4.80;;;4.43;;
13185;SDS011;6658;53.080;7.428;2024-02-26T13:03:55;5.20;;;4.80;;
13185;SDS011;6658;53.080;7.428;2024-02-26T13:06:22;5.00;;;4.60;;
13185;SDS011;6658;53.080;7.428;2024-02-26T13:08:48;4.87;;;4.47;;
13185;SDS011;6658;53.080;7.428;2024-02-26T13:11:14;4.97;;;4.57;;
13185;SDS011;6658;53.080;7.428;2024-02-26T13:13:40;4.67;;;4.33;;
13185;SDS011;6658;53.080;7.428;2024-02-26T13:16:07;4.23;;;3.57;;
13185;SDS011;6658;53.080;7.428;2024-02-26T13:18:35;4.93;;;4.53;;
13185;SDS011;6658;53.080;7.428;2024-02-26T13:21:07;4.53;;;4.13;;
13185;SDS011;6658;53.080;7.428;2024-02-26T13:23:34;5.17;;;4.70;;
13185;SDS011;6658;53.080;7.428;2024-02-26T13:26:00;4.23;;;3.93;;
13185;SDS011;6658;53.080;7.428;2024-02-26T13:28:26;4.90;;;4.40;;
13185;SDS011;6658;53.080;7.428;2024-02-26T13:30:56;4.00;;;3.70;;
13185;SDS011;6658;53.080;7.428;2024-02-26T13:33:23;3.13;;;2.90;;
13185;SDS011;6658;53.080;7.428;2024-02-26T13:35:50;5.30;;;4.80;;
13185;SDS011;6658;53.080;7.428;2024-02-26T13:38:16;4.07;;;3.77;;
13185;SDS011;6658;53.080;7.428;2024-02-26T13:40:42;5.33;;;4.93;;
13185;SDS011;6658;53.080;7.428;2024-02-26T13:43:08;5.50;;;5.10;;
13185;SDS011;6658;53.080;7.428;2024-02-26T13:45:34;4.97;;;4.60;;
13185;SDS011;6658;53.080;7.428;2024-02-26T13:48:18;5.20;;;4.80;;
13185;SDS011;6658;53.080;7.428;2024-02-26T13:50:44;5.67;;;5.17;;
13185;SDS011;6658;53.080;7.428;2024-02-26T13:53:10;6.00;;;5.50;;
13185;SDS011;6658;53.080;7.428;2024-02-26T13:55:37;5.07;;;4.67;;
13185;SDS011;6658;53.080;7.428;2024-02-26T13:58:04;4.90;;;4.50;;
13185;SDS011;6658;53.080;7.428;2024-02-26T14:00:32;5.60;;;5.10;;
13185;SDS011;6658;53.080;7.428;2024-02-26T14:02:59;6.07;;;5.57;;
13185;SDS011;6658;53.080;7.428;2024-02-26T14:05:25;5.80;;;5.30;;
13185;SDS011;6658;53.080;7.428;2024-02-26T14:07:51;5.97;;;5.37;;
13185;SDS011;6658;53.080;7.428;2024-02-26T14:10:18;5.53;;;5.07;;
13185;SDS011;6658;53.080;7.428;2024-02-26T14:12:43;5.77;;;5.27;;
13185;SDS011;6658;53.080;7.428;2024-02-26T14:15:09;4.67;;;4.27;;
13185;SDS011;6658;53.080;7.428;2024-02-26T14:17:35;5.67;;;5.17;;
13185;SDS011;6658;53.080;7.428;2024-02-26T14:20:02;6.07;;;5.57;;
13185;SDS011;6658;53.080;7.428;2024-02-26T14:22:28;5.57;;;5.07;;
13185;SDS011;6658;53.080;7.428;2024-02-26T14:24:55;5.67;;;5.17;;
13185;SDS011;6658;53.080;7.428;2024-02-26T14:27:21;5.73;;;5.23;;
13185;SDS011;6658;53.080;7.428;2024-02-26T14:29:48;6.00;;;5.50;;
13185;SDS011;6658;53.080;7.428;2024-02-26T14:32:14;6.20;;;5.70;;
13185;SDS011;6658;53.080;7.428;2024-02-26T14:34:40;6.17;;;5.67;;
13185;SDS011;6658;53.080;7.428;2024-02-26T14:37:06;5.90;;;5.40;;
13185;SDS011;6658;53.080;7.428;2024-02-26T14:39:32;6.37;;;5.77;;
13185;SDS011;6658;53.080;7.428;2024-02-26T14:41:58;6.40;;;5.90;;
13185;SDS011;6658;53.080;7.428;2024-02-26T14:44:24;5.73;;;5.07;;
13185;SDS011;6658;53.080;7.428;2024-02-26T14:46:50;5.00;;;4.50;;
13185;SDS011;6658;53.080;7.428;2024-02-26T14:49:16;6.87;;;6.17;;
13185;SDS011;6658;53.080;7.428;2024-02-26T14:51:42;5.80;;;5.30;;
13185;SDS011;6658;53.080;7.428;2024-02-26T14:54:10;6.17;;;5.57;;
13185;SDS011;6658;53.080;7.428;2024-02-26T14:56:39;7.47;;;5.33;;